createdAt,value
2023-04-06T00:00:00.763Z,101939.34
2023-04-06T00:02:28.850Z,101934.97
2023-04-06T00:04:56.931Z,101932.56
2023-04-06T00:07:26.452Z,101926.72
2023-04-06T00:09:54.416Z,101930.72
2023-04-06T00:12:22.392Z,101936.88
2023-04-06T00:14:50.465Z,101933.13
2023-04-06T00:17:18.542Z,101932.97
2023-04-06T00:19:46.641Z,101925.00
2023-04-06T00:22:14.623Z,101925.31
2023-04-06T00:24:44.044Z,101921.84
2023-04-06T00:27:11.985Z,101919.25
2023-04-06T00:29:42.005Z,101917.59
2023-04-06T00:32:10.530Z,101917.59
2023-04-06T00:34:38.524Z,101915.75
2023-04-06T00:37:06.867Z,101911.28
2023-04-06T00:39:34.810Z,101909.50
2023-04-06T00:42:12.943Z,101906.78
2023-04-06T00:44:41.043Z,101905.09
2023-04-06T00:47:09.328Z,101907.75
2023-04-06T00:49:37.648Z,101902.31
2023-04-06T00:52:05.527Z,101901.47
2023-04-06T00:54:33.850Z,101901.44
2023-04-06T00:57:03.734Z,101899.75
2023-04-06T00:59:32.007Z,101899.72
2023-04-06T01:02:00.671Z,101898.03
2023-04-06T01:04:29.313Z,101893.59
2023-04-06T01:06:57.518Z,101893.59
2023-04-06T01:09:25.807Z,101905.09
2023-04-06T01:11:53.842Z,101891.06
2023-04-06T01:14:23.783Z,101885.03
2023-04-06T01:16:51.882Z,101883.59
2023-04-06T01:19:20.301Z,101882.75
2023-04-06T01:21:50.332Z,101886.31
2023-04-06T01:24:19.914Z,101878.31
2023-04-06T01:26:48.002Z,101880.44
2023-04-06T01:29:15.936Z,101873.06
2023-04-06T01:31:44.164Z,101877.38
2023-04-06T01:34:12.385Z,101878.09
2023-04-06T01:36:40.616Z,101867.66
2023-04-06T01:39:09.096Z,101881.72
2023-04-06T01:41:38.672Z,101872.09
2023-04-06T01:44:07.164Z,101879.19
2023-04-06T01:46:35.338Z,101872.34
2023-04-06T01:49:03.392Z,101873.34
2023-04-06T01:51:31.891Z,101873.34
2023-04-06T01:53:59.943Z,101865.41
2023-04-06T01:56:27.916Z,101872.38
2023-04-06T01:58:57.331Z,101861.81
2023-04-06T02:01:25.608Z,101864.44
2023-04-06T02:03:53.575Z,101865.34
2023-04-06T02:06:21.959Z,101860.81
2023-04-06T02:08:50.036Z,101857.31
2023-04-06T02:11:17.945Z,101858.38
2023-04-06T02:13:45.940Z,101857.66
2023-04-06T02:16:16.038Z,101852.25
2023-04-06T02:18:44.100Z,101849.75
2023-04-06T02:21:12.004Z,101849.94
2023-04-06T02:23:39.929Z,101850.03
2023-04-06T02:26:07.855Z,101842.59
2023-04-06T02:28:35.783Z,101845.28
2023-04-06T02:31:03.882Z,101846.88
2023-04-06T02:33:33.195Z,101843.31
2023-04-06T02:36:01.239Z,101845.19
2023-04-06T02:38:29.355Z,101847.13
2023-04-06T02:40:57.678Z,101847.88
2023-04-06T02:43:25.813Z,101847.00
2023-04-06T02:45:53.971Z,101845.31
2023-04-06T02:48:22.142Z,101843.75
2023-04-06T02:50:51.649Z,101848.13
2023-04-06T02:53:19.720Z,101848.13
2023-04-06T02:55:47.684Z,101845.34
2023-04-06T02:58:15.566Z,101844.75
2023-04-06T03:00:43.568Z,101843.84
2023-04-06T03:03:11.695Z,101846.44
2023-04-06T03:05:39.742Z,101850.19
2023-04-06T03:08:09.142Z,101844.91
2023-04-06T03:10:37.192Z,101855.63
2023-04-06T03:13:05.160Z,101853.97
2023-04-06T03:15:33.177Z,101847.09
2023-04-06T03:18:01.332Z,101850.66
2023-04-06T03:20:29.300Z,101856.81
2023-04-06T03:22:57.416Z,101856.78
2023-04-06T03:25:26.787Z,101857.75
2023-04-06T03:27:54.649Z,101856.03
2023-04-06T03:30:22.852Z,101852.56
2023-04-06T03:32:50.967Z,101856.03
2023-04-06T03:35:18.994Z,101862.19
2023-04-06T03:37:47.152Z,101860.34
2023-04-06T03:40:15.648Z,101854.22
2023-04-06T03:42:45.189Z,101855.13
2023-04-06T03:45:14.119Z,101863.09
2023-04-06T03:47:42.144Z,101864.47
2023-04-06T03:50:11.105Z,101866.03
2023-04-06T03:52:39.076Z,101860.81
2023-04-06T03:55:08.452Z,101852.94
2023-04-06T03:57:36.335Z,101862.63
2023-04-06T04:00:07.052Z,101867.06
2023-04-06T04:02:35.181Z,101868.88
2023-04-06T04:05:03.629Z,101862.88
2023-04-06T04:07:31.757Z,101864.66
2023-04-06T04:09:59.803Z,101861.31
2023-04-06T04:12:27.785Z,101866.50
2023-04-06T04:14:55.839Z,101867.38
2023-04-06T04:17:26.812Z,101870.72
2023-04-06T04:19:54.805Z,101871.81
2023-04-06T04:22:22.817Z,101885.22
2023-04-06T04:24:50.770Z,101875.56
2023-04-06T04:27:19.000Z,101876.50
2023-04-06T04:29:48.096Z,101876.59
2023-04-06T04:32:16.601Z,101881.78
2023-04-06T04:34:48.605Z,101882.75
2023-04-06T04:37:16.601Z,101876.69
2023-04-06T04:39:44.508Z,101877.53
2023-04-06T04:42:12.396Z,101881.91
2023-04-06T04:44:40.750Z,101884.72
2023-04-06T04:47:08.634Z,101891.66
2023-04-06T04:49:36.704Z,101886.28
2023-04-06T04:52:06.122Z,101887.91
2023-04-06T04:54:34.019Z,101879.16
2023-04-06T04:57:03.709Z,101884.72
2023-04-06T04:59:31.830Z,101885.59
2023-04-06T05:01:59.723Z,101883.19
2023-04-06T05:04:27.854Z,101881.44
2023-04-06T05:07:06.849Z,101879.84
2023-04-06T05:09:34.919Z,101887.69
2023-04-06T05:12:03.106Z,101878.22
2023-04-06T05:14:31.505Z,101881.59
2023-04-06T05:16:59.458Z,101885.91
2023-04-06T05:19:27.567Z,101884.09
2023-04-06T05:21:55.638Z,101885.84
2023-04-06T05:24:24.998Z,101883.19
2023-04-06T05:26:52.982Z,101891.00
2023-04-06T05:29:21.185Z,101888.31
2023-04-06T05:31:49.545Z,101891.72
2023-04-06T05:34:17.679Z,101888.31
2023-04-06T05:36:45.614Z,101885.81
2023-04-06T05:39:14.038Z,101887.69
2023-04-06T05:41:43.292Z,101887.63
2023-04-06T05:44:11.394Z,101885.09
2023-04-06T05:46:39.332Z,101879.56
2023-04-06T05:49:07.397Z,101887.56
2023-04-06T05:51:35.382Z,101876.91
2023-04-06T05:54:03.381Z,101876.81
2023-04-06T05:56:33.019Z,101886.47
2023-04-06T05:59:03.646Z,101881.13
2023-04-06T06:01:31.829Z,101881.94
2023-04-06T06:03:59.805Z,101885.38
2023-04-06T06:06:29.700Z,101880.88
2023-04-06T06:08:59.933Z,101882.50
2023-04-06T06:11:27.883Z,101880.81
2023-04-06T06:13:56.251Z,101879.72
2023-04-06T06:16:25.655Z,101875.81
2023-04-06T06:18:53.629Z,101875.75
2023-04-06T06:21:21.504Z,101880.88
2023-04-06T06:23:50.378Z,101877.16
2023-04-06T06:26:18.562Z,101872.50
2023-04-06T06:28:48.605Z,101882.75
2023-04-06T06:31:16.644Z,101874.72
2023-04-06T06:33:46.206Z,101876.19
2023-04-06T06:36:14.150Z,101874.19
2023-04-06T06:38:42.093Z,101868.63
2023-04-06T06:41:10.114Z,101882.47
2023-04-06T06:43:38.254Z,101875.53
2023-04-06T06:46:07.058Z,101871.81
2023-04-06T06:48:35.435Z,101885.75
2023-04-06T06:51:05.153Z,101882.03
2023-04-06T06:53:33.100Z,101876.63
2023-04-06T06:56:01.042Z,101883.28
2023-04-06T06:58:29.121Z,101872.44
2023-04-06T07:00:59.363Z,101869.47
2023-04-06T07:03:27.766Z,101871.13
2023-04-06T07:05:56.012Z,101870.13
2023-04-06T07:08:26.741Z,101869.81
2023-04-06T07:10:57.201Z,101864.06
2023-04-06T07:13:25.762Z,101865.50
2023-04-06T07:15:54.095Z,101864.31
2023-04-06T07:18:22.975Z,101872.88
2023-04-06T07:20:51.251Z,101871.38
2023-04-06T07:23:19.186Z,101870.25
2023-04-06T07:25:48.533Z,101857.47
2023-04-06T07:28:16.537Z,101846.81
2023-04-06T07:30:44.587Z,101846.59
2023-04-06T07:33:12.607Z,101840.25
2023-04-06T07:35:40.847Z,101851.31
2023-04-06T07:38:08.945Z,101838.75
2023-04-06T07:40:36.844Z,101837.59
2023-04-06T07:43:06.215Z,101833.06
2023-04-06T07:45:34.249Z,101823.03
2023-04-06T07:48:02.315Z,101821.25
2023-04-06T07:50:30.581Z,101821.13
2023-04-06T07:52:58.802Z,101817.00
2023-04-06T07:55:26.763Z,101810.38
2023-04-06T07:57:54.902Z,101822.06
2023-04-06T08:00:24.574Z,101815.94
2023-04-06T08:02:52.696Z,101815.75
2023-04-06T08:05:20.744Z,101808.84
2023-04-06T08:07:48.661Z,101817.56
2023-04-06T08:10:16.754Z,101818.25
2023-04-06T08:12:44.719Z,101817.72
2023-04-06T08:15:13.015Z,101817.88
2023-04-06T08:17:42.511Z,101826.63
2023-04-06T08:20:11.195Z,101814.47
2023-04-06T08:22:39.093Z,101820.50
2023-04-06T08:25:08.230Z,101821.09
2023-04-06T08:27:36.229Z,101817.19
2023-04-06T08:30:04.683Z,101811.06
2023-04-06T08:32:32.779Z,101806.75
2023-04-06T08:35:02.152Z,101806.47
2023-04-06T08:37:30.904Z,101795.06
2023-04-06T08:39:59.934Z,101801.09
2023-04-06T08:42:30.776Z,101795.03
2023-04-06T08:44:58.782Z,101802.09
2023-04-06T08:47:27.068Z,101795.19
2023-04-06T08:49:55.918Z,101800.47
2023-04-06T08:52:27.741Z,101797.75
2023-04-06T08:54:56.004Z,101801.94
2023-04-06T08:57:24.451Z,101796.59
2023-04-06T08:59:53.377Z,101804.63
2023-04-06T09:02:22.791Z,101807.38
2023-04-06T09:04:54.701Z,101802.31
2023-04-06T09:07:23.570Z,101792.31
2023-04-06T09:09:52.960Z,101802.44
2023-04-06T09:12:28.759Z,101794.44
2023-04-06T09:14:57.625Z,101805.75
2023-04-06T09:17:27.764Z,101794.16
2023-04-06T09:19:56.913Z,101784.63
2023-04-06T09:22:28.080Z,101788.72
2023-04-06T09:24:57.634Z,101777.91
2023-04-06T09:27:35.562Z,101785.41
2023-04-06T09:30:08.917Z,101783.84
2023-04-06T09:32:48.182Z,101774.75
2023-04-06T09:35:16.739Z,101781.34
2023-04-06T09:37:44.894Z,101786.63
2023-04-06T09:40:15.865Z,101784.03
2023-04-06T09:42:44.781Z,101775.00
2023-04-06T09:45:13.206Z,101783.47
2023-04-06T09:47:43.371Z,101779.34
2023-04-06T09:50:13.346Z,101765.94
2023-04-06T09:52:47.490Z,101767.41
2023-04-06T09:55:35.450Z,101770.22
2023-04-06T09:58:07.327Z,101762.38
2023-04-06T10:00:45.193Z,101758.06
2023-04-06T10:03:32.589Z,101761.97
2023-04-06T10:06:07.036Z,101768.94
2023-04-06T10:08:37.213Z,101764.44
2023-04-06T10:11:06.940Z,101769.09
2023-04-06T10:13:35.709Z,101768.53
2023-04-06T10:16:04.075Z,101765.09
2023-04-06T10:18:32.426Z,101752.88
2023-04-06T10:21:05.296Z,101759.13
2023-04-06T10:23:37.176Z,101751.94
2023-04-06T10:26:07.503Z,101758.88
2023-04-06T10:28:37.122Z,101759.88
2023-04-06T10:31:08.155Z,101756.88
2023-04-06T10:33:36.173Z,101756.53
2023-04-06T10:36:12.768Z,101754.19
2023-04-06T10:38:43.514Z,101762.03
2023-04-06T10:41:15.088Z,101755.50
2023-04-06T10:43:45.403Z,101757.09
2023-04-06T10:46:14.497Z,101747.72
2023-04-06T10:48:44.646Z,101756.34
2023-04-06T10:51:14.257Z,101751.06
2023-04-06T10:53:45.463Z,101753.66
2023-04-06T10:56:17.079Z,101749.56
2023-04-06T10:58:49.700Z,101746.66
2023-04-06T11:01:18.991Z,101739.69
2023-04-06T11:03:47.339Z,101735.13
2023-04-06T11:06:21.221Z,101737.53
2023-04-06T11:08:49.853Z,101744.50
2023-04-06T11:11:21.141Z,101741.31
2023-04-06T11:13:52.022Z,101728.66
2023-04-06T11:16:21.396Z,101732.22
2023-04-06T11:18:54.636Z,101723.19
2023-04-06T11:21:35.363Z,101724.72
2023-04-06T11:24:11.680Z,101727.72
2023-04-06T11:26:43.049Z,101725.41
2023-04-06T11:29:11.661Z,101722.72
2023-04-06T11:31:45.079Z,101722.81
2023-04-06T11:34:19.478Z,101718.53
2023-04-06T11:36:48.943Z,101720.97
2023-04-06T11:39:21.906Z,101724.38
2023-04-06T11:41:51.923Z,101719.31
2023-04-06T11:44:33.620Z,101714.84
2023-04-06T11:47:03.322Z,101720.38
2023-04-06T11:49:31.860Z,101717.28
2023-04-06T11:52:01.292Z,101705.19
2023-04-06T11:54:33.679Z,101704.06
2023-04-06T11:57:04.626Z,101701.28
2023-04-06T11:59:33.015Z,101695.00
2023-04-06T12:02:01.170Z,101707.25
2023-04-06T12:04:29.113Z,101719.34
2023-04-06T12:06:57.262Z,101698.91
2023-04-06T12:09:25.465Z,101698.25
2023-04-06T12:11:53.417Z,101699.22
2023-04-06T12:14:23.040Z,101691.63
2023-04-06T12:16:50.920Z,101682.91
2023-04-06T12:19:18.999Z,101683.38
2023-04-06T12:21:47.037Z,101685.75
2023-04-06T12:24:15.042Z,101689.00
2023-04-06T12:26:43.294Z,101690.66
2023-04-06T12:29:12.123Z,101685.22
2023-04-06T12:31:45.580Z,101690.88
2023-04-06T12:34:13.824Z,101685.84
2023-04-06T12:36:41.823Z,101680.91
2023-04-06T12:39:09.994Z,101684.53
2023-04-06T12:41:38.144Z,101677.03
2023-04-06T12:44:06.102Z,101680.63
2023-04-06T12:46:34.214Z,101685.91
2023-04-06T12:49:04.142Z,101687.53
2023-04-06T12:51:33.007Z,101684.19
2023-04-06T12:54:00.930Z,101677.84
2023-04-06T12:56:29.124Z,101666.16
2023-04-06T12:58:57.657Z,101671.50
2023-04-06T13:03:54.501Z,101665.47
2023-04-06T13:06:23.809Z,101668.28
2023-04-06T13:08:53.358Z,101665.28
2023-04-06T13:11:26.869Z,101662.81
2023-04-06T13:13:56.234Z,101663.75
2023-04-06T13:16:24.460Z,101662.59
2023-04-06T13:18:52.385Z,101654.84
2023-04-06T13:21:22.085Z,101645.25
2023-04-06T13:23:53.424Z,101647.00
2023-04-06T13:26:22.424Z,101649.88
2023-04-06T13:28:50.642Z,101647.53
2023-04-06T13:31:18.722Z,101652.22
2023-04-06T13:33:46.900Z,101636.09
2023-04-06T13:36:17.464Z,101637.75
2023-04-06T13:38:46.295Z,101633.16
2023-04-06T13:41:23.467Z,101653.00
2023-04-06T13:43:51.949Z,101644.50
2023-04-06T13:46:20.258Z,101635.00
2023-04-06T13:48:49.122Z,101627.59
2023-04-06T13:51:17.105Z,101634.44
2023-04-06T13:53:45.130Z,101622.66
2023-04-06T13:56:13.053Z,101618.28
2023-04-06T13:58:45.908Z,101604.03
2023-04-06T14:01:14.391Z,101614.00
2023-04-06T14:03:43.344Z,101609.31
2023-04-06T14:06:29.673Z,101609.97
2023-04-06T14:08:59.433Z,101597.31
2023-04-06T14:11:27.579Z,101604.81
2023-04-06T14:13:58.511Z,101602.88
2023-04-06T14:16:27.381Z,101608.91
2023-04-06T14:18:56.134Z,101618.97
2023-04-06T14:21:24.456Z,101615.88
2023-04-06T14:23:53.651Z,101616.69
2023-04-06T14:26:21.790Z,101614.13
2023-04-06T14:28:50.063Z,101608.31
2023-04-06T14:31:19.453Z,101598.72
2023-04-06T14:33:47.722Z,101598.13
2023-04-06T14:36:16.482Z,101587.00
2023-04-06T14:38:45.209Z,101603.00
2023-04-06T14:41:18.080Z,101600.38
2023-04-06T14:43:46.339Z,101605.13
2023-04-06T14:46:14.815Z,101595.72
2023-04-06T14:48:44.198Z,101598.38
2023-04-06T14:51:12.372Z,101595.53
2023-04-06T14:53:40.350Z,101593.53
2023-04-06T14:56:09.041Z,101596.16
2023-04-06T14:58:37.289Z,101590.97
2023-04-06T15:01:05.577Z,101590.72
2023-04-06T15:03:33.448Z,101590.94
2023-04-06T15:06:02.850Z,101586.13
2023-04-06T15:08:30.760Z,101585.06
2023-04-06T15:11:01.336Z,101585.91
2023-04-06T15:13:29.370Z,101582.53
2023-04-06T15:15:57.593Z,101585.34
2023-04-06T15:18:26.271Z,101584.56
2023-04-06T15:20:54.302Z,101578.78
2023-04-06T15:23:26.450Z,101585.81
2023-04-06T15:25:54.577Z,101586.16
2023-04-06T15:28:24.931Z,101588.16
2023-04-06T15:30:53.334Z,101592.28
2023-04-06T15:33:25.256Z,101588.47
2023-04-06T15:35:53.251Z,101593.63
2023-04-06T15:38:22.310Z,101590.13
2023-04-06T15:40:51.713Z,101585.84
2023-04-06T15:43:19.895Z,101588.06
2023-04-06T15:45:47.981Z,101580.81
2023-04-06T15:48:16.387Z,101580.03
2023-04-06T15:50:44.582Z,101574.25
2023-04-06T15:53:12.742Z,101573.41
2023-04-06T15:55:40.630Z,101580.22
2023-04-06T15:58:10.132Z,101575.13
2023-04-06T16:00:38.050Z,101576.44
2023-04-06T16:03:06.285Z,101583.06
2023-04-06T16:05:36.337Z,101586.06
2023-04-06T16:08:17.031Z,101583.38
2023-04-06T16:10:45.267Z,101582.25
2023-04-06T16:13:16.697Z,101578.28
2023-04-06T16:15:44.752Z,101582.13
2023-04-06T16:18:12.636Z,101579.34
2023-04-06T16:20:40.792Z,101582.44
2023-04-06T16:23:14.860Z,101580.63
2023-04-06T16:25:43.021Z,101574.28
2023-04-06T16:28:11.324Z,101584.50
2023-04-06T16:30:43.574Z,101577.22
2023-04-06T16:33:13.886Z,101584.31
2023-04-06T16:35:45.770Z,101580.84
2023-04-06T16:38:26.294Z,101583.75
2023-04-06T16:41:01.659Z,101581.28
2023-04-06T16:43:29.734Z,101586.31
2023-04-06T16:45:59.290Z,101588.03
2023-04-06T16:48:27.467Z,101590.81
2023-04-06T17:11:03.069Z,101582.16
2023-04-06T17:13:32.492Z,101589.28
2023-04-06T17:16:04.617Z,101583.03
2023-04-06T17:18:34.780Z,101587.72
2023-04-06T17:21:06.899Z,101594.19
2023-04-06T17:23:35.347Z,101588.53
2023-04-06T17:26:07.577Z,101593.81
2023-04-06T17:28:35.812Z,101594.25
2023-04-06T17:31:07.982Z,101594.69
2023-04-06T17:33:36.479Z,101587.44
2023-04-06T17:36:04.633Z,101592.28
2023-04-06T17:38:45.889Z,101588.13
2023-04-06T17:41:16.120Z,101600.31
2023-04-06T17:43:44.063Z,101600.69
2023-04-06T17:46:12.302Z,101614.91
2023-04-06T17:48:40.629Z,101611.94
2023-04-06T17:51:08.595Z,101613.25
2023-04-06T17:53:37.230Z,101617.19
2023-04-06T17:56:05.487Z,101620.41
2023-04-06T17:58:35.411Z,101627.56
2023-04-06T18:01:08.446Z,101630.28
2023-04-06T18:03:36.769Z,101629.22
2023-04-06T18:06:12.334Z,101632.69
2023-04-06T18:08:40.431Z,101637.19
2023-04-06T18:11:08.990Z,101639.31
2023-04-06T18:13:40.085Z,101635.44
2023-04-06T18:16:10.795Z,101644.97
2023-04-06T18:18:39.161Z,101642.78
2023-04-06T18:21:10.568Z,101644.53
2023-04-06T18:23:38.828Z,101648.25
2023-04-06T18:26:07.542Z,101635.75
2023-04-06T18:28:39.702Z,101645.91
2023-04-06T18:31:07.750Z,101650.78
2023-04-06T18:33:35.728Z,101644.75
2023-04-06T18:36:04.496Z,101660.75
2023-04-06T18:38:32.461Z,101658.31
2023-04-06T18:41:00.487Z,101662.94
2023-04-06T18:43:28.726Z,101659.81
2023-04-06T18:45:58.035Z,101657.28
2023-04-06T18:48:25.993Z,101663.13
2023-04-06T18:50:54.353Z,101669.38
2023-04-06T18:53:23.701Z,101664.06
2023-04-06T18:55:54.377Z,101663.34
2023-04-06T18:58:23.399Z,101666.81
2023-04-06T19:00:51.436Z,101663.44
2023-04-06T19:03:22.104Z,101668.06
2023-04-06T19:05:50.616Z,101669.94
2023-04-06T19:08:18.680Z,101670.28
2023-04-06T19:10:48.993Z,101673.25
2023-04-06T19:13:19.554Z,101670.69
2023-04-06T19:15:47.517Z,101668.47
2023-04-06T19:18:15.564Z,101683.31
2023-04-06T19:20:45.516Z,101674.13
2023-04-06T19:23:13.911Z,101680.56
2023-04-06T19:25:44.361Z,101679.69
2023-04-06T19:28:14.461Z,101689.00
2023-04-06T19:30:48.271Z,101683.88
2023-04-06T19:33:17.363Z,101680.72
2023-04-06T19:35:49.396Z,101691.31
2023-04-06T19:38:17.306Z,101690.50
2023-04-06T19:40:45.398Z,101688.84
2023-04-06T19:43:16.376Z,101689.91
2023-04-06T19:45:44.767Z,101688.28
2023-04-06T19:48:13.154Z,101695.06
2023-04-06T19:50:41.182Z,101693.25
2023-04-06T19:53:10.860Z,101695.59
2023-04-06T19:55:39.315Z,101697.53
2023-04-06T19:58:07.513Z,101695.09
2023-04-06T20:00:35.824Z,101700.00
2023-04-06T20:03:04.121Z,101697.50
2023-04-06T20:05:47.863Z,101698.28
2023-04-06T20:08:17.245Z,101698.47
2023-04-06T20:10:47.333Z,101692.75
2023-04-06T20:13:15.683Z,101691.03
2023-04-06T20:15:43.884Z,101691.53
2023-04-06T20:18:14.124Z,101696.78
2023-04-06T20:20:42.553Z,101689.66
2023-04-06T20:23:12.731Z,101696.59
2023-04-06T20:25:42.201Z,101698.53
2023-04-06T20:28:10.900Z,101697.94
2023-04-06T20:30:39.426Z,101693.47
2023-04-06T20:33:07.576Z,101690.09
2023-04-06T20:35:36.176Z,101691.03
2023-04-06T20:38:04.663Z,101694.03
2023-04-06T20:40:32.759Z,101695.19
2023-04-06T20:43:03.356Z,101689.69
2023-04-06T20:45:38.573Z,101693.66
2023-04-06T20:48:06.697Z,101695.03
2023-04-06T20:50:34.842Z,101692.44
2023-04-06T20:53:02.891Z,101691.19
2023-04-06T20:55:31.305Z,101698.09
2023-04-06T20:57:59.492Z,101689.50
2023-04-06T21:00:29.042Z,101697.56
2023-04-06T21:02:57.265Z,101697.50
2023-04-06T21:05:25.880Z,101695.59
2023-04-06T21:07:53.920Z,101700.38
2023-04-06T21:10:24.018Z,101694.50
2023-04-06T21:12:52.112Z,101698.22
2023-04-06T21:15:26.814Z,101695.91
2023-04-06T21:17:56.726Z,101692.41
2023-04-06T21:20:25.606Z,101688.81
2023-04-06T21:22:53.808Z,101692.44
2023-04-06T21:25:22.380Z,101694.38
2023-04-06T21:27:53.393Z,101683.41
2023-04-06T21:30:21.992Z,101687.09
2023-04-06T21:32:50.174Z,101688.84
2023-04-06T21:35:20.031Z,101692.31
2023-04-06T21:37:48.029Z,101689.66
2023-04-06T21:40:15.948Z,101689.03
2023-04-06T21:42:44.206Z,101680.16
2023-04-06T21:45:12.721Z,101692.81
2023-04-06T21:47:41.042Z,101689.41
2023-04-06T21:50:09.431Z,101689.97
2023-04-06T21:52:39.158Z,101691.78
2023-04-06T21:55:08.046Z,101688.50
2023-04-06T21:57:36.953Z,101685.22
2023-04-06T22:00:09.829Z,101684.50
2023-04-06T22:02:39.438Z,101688.06
2023-04-06T22:05:08.650Z,101691.66
2023-04-06T22:07:38.709Z,101688.50
2023-04-06T22:10:07.642Z,101688.13
2023-04-06T22:12:36.032Z,101678.59
2023-04-06T22:15:05.411Z,101682.38
2023-04-06T22:17:45.428Z,101688.44
2023-04-06T22:20:13.818Z,101688.56
2023-04-06T22:22:43.369Z,101682.50
2023-04-06T22:25:23.451Z,101679.94
2023-04-06T22:27:53.493Z,101683.84
2023-04-06T22:30:21.786Z,101683.91
2023-04-06T22:32:49.861Z,101681.47
2023-04-06T22:35:21.348Z,101683.25
2023-04-06T22:37:53.044Z,101684.25
2023-04-06T22:40:21.086Z,101687.09
2023-04-06T22:42:49.281Z,101677.63
2023-04-06T22:45:17.763Z,101687.44
2023-04-06T22:47:45.897Z,101691.72
2023-04-06T22:50:15.345Z,101687.31
2023-04-06T22:52:43.504Z,101697.31
2023-04-06T22:55:12.941Z,101690.22
2023-04-06T22:57:40.991Z,101702.84
2023-04-06T23:00:10.585Z,101699.44
2023-04-06T23:02:39.879Z,101704.06
2023-04-06T23:05:08.370Z,101700.31
2023-04-06T23:07:36.655Z,101706.84
2023-04-06T23:10:04.794Z,101701.56
2023-04-06T23:12:34.362Z,101710.91
2023-04-06T23:15:02.526Z,101712.81
2023-04-06T23:17:30.810Z,101706.47
2023-04-06T23:19:58.864Z,101703.47
2023-04-06T23:22:27.112Z,101703.53
2023-04-06T23:24:55.216Z,101701.75
2023-04-06T23:27:23.250Z,101707.75
2023-04-06T23:29:52.541Z,101706.78
2023-04-06T23:32:20.499Z,101704.47
2023-04-06T23:34:48.739Z,101712.44
2023-04-06T23:37:16.746Z,101706.59
2023-04-06T23:39:45.342Z,101716.13
2023-04-06T23:42:13.253Z,101711.97
2023-04-06T23:44:41.328Z,101708.44
2023-04-06T23:47:11.862Z,101710.00
2023-04-06T23:49:39.801Z,101701.69
2023-04-06T23:52:07.879Z,101703.34
2023-04-06T23:54:36.237Z,101700.81
2023-04-06T23:57:04.540Z,101715.09
2023-04-06T23:59:32.609Z,101719.53
